sensor_id;sensor_type;location;lat;lon;timestamp;temperature;humidity
18105;DHT22;9179;50.968;3.134;2023-12-28T00:02:05;12.40;99.90
18105;DHT22;9179;50.968;3.134;2023-12-28T00:04:32;12.40;99.90
18105;DHT22;9179;50.968;3.134;2023-12-28T00:07:02;12.40;99.90
18105;DHT22;9179;50.968;3.134;2023-12-28T00:09:29;12.40;99.90
18105;DHT22;9179;50.968;3.134;2023-12-28T00:11:56;12.50;99.90
18105;DHT22;9179;50.968;3.134;2023-12-28T00:14:23;12.50;99.90
18105;DHT22;9179;50.968;3.134;2023-12-28T00:16:50;12.50;99.90
18105;DHT22;9179;50.968;3.134;2023-12-28T00:19:17;12.50;99.90
18105;DHT22;9179;50.968;3.134;2023-12-28T00:21:45;12.60;99.90
18105;DHT22;9179;50.968;3.134;2023-12-28T00:24:14;12.50;99.90
18105;DHT22;9179;50.968;3.134;2023-12-28T00:26:41;12.40;99.90
18105;DHT22;9179;50.968;3.134;2023-12-28T00:29:08;12.40;99.90
18105;DHT22;9179;50.968;3.134;2023-12-28T00:31:35;12.30;99.90
18105;DHT22;9179;50.968;3.134;2023-12-28T00:34:02;12.30;99.90
18105;DHT22;9179;50.968;3.134;2023-12-28T00:36:29;12.30;99.90
18105;DHT22;9179;50.968;3.134;2023-12-28T00:38:57;12.30;99.90
18105;DHT22;9179;50.968;3.134;2023-12-28T00:41:25;12.20;99.90
18105;DHT22;9179;50.968;3.134;2023-12-28T00:43:52;12.20;99.90
18105;DHT22;9179;50.968;3.134;2023-12-28T00:46:19;12.20;99.90
18105;DHT22;9179;50.968;3.134;2023-12-28T00:48:46;12.20;99.90
18105;DHT22;9179;50.968;3.134;2023-12-28T00:51:14;12.20;99.90
18105;DHT22;9179;50.968;3.134;2023-12-28T00:53:41;12.20;99.90
18105;DHT22;9179;50.968;3.134;2023-12-28T00:56:09;12.20;99.90
18105;DHT22;9179;50.968;3.134;2023-12-28T00:58:40;12.10;99.90
18105;DHT22;9179;50.968;3.134;2023-12-28T01:01:09;12.10;99.90
18105;DHT22;9179;50.968;3.134;2023-12-28T01:03:36;12.10;99.90
18105;DHT22;9179;50.968;3.134;2023-12-28T01:06:04;12.10;99.90
18105;DHT22;9179;50.968;3.134;2023-12-28T01:08:31;12.20;99.90
18105;DHT22;9179;50.968;3.134;2023-12-28T01:10:59;12.30;99.90
18105;DHT22;9179;50.968;3.134;2023-12-28T01:13:28;12.50;99.90
18105;DHT22;9179;50.968;3.134;2023-12-28T01:15:57;12.50;99.90
18105;DHT22;9179;50.968;3.134;2023-12-28T01:18:24;12.40;99.90
18105;DHT22;9179;50.968;3.134;2023-12-28T01:20:51;12.30;99.90
18105;DHT22;9179;50.968;3.134;2023-12-28T01:23:18;12.20;99.90
18105;DHT22;9179;50.968;3.134;2023-12-28T01:25:45;12.10;99.90
18105;DHT22;9179;50.968;3.134;2023-12-28T01:28:12;12.00;99.90
18105;DHT22;9179;50.968;3.134;2023-12-28T01:30:39;12.00;99.90
18105;DHT22;9179;50.968;3.134;2023-12-28T01:33:07;12.00;99.90
18105;DHT22;9179;50.968;3.134;2023-12-28T01:35:34;12.00;99.90
18105;DHT22;9179;50.968;3.134;2023-12-28T01:38:01;11.90;99.90
18105;DHT22;9179;50.968;3.134;2023-12-28T01:40:29;12.00;99.90
18105;DHT22;9179;50.968;3.134;2023-12-28T01:42:55;12.00;99.90
18105;DHT22;9179;50.968;3.134;2023-12-28T01:45:22;12.00;99.90
18105;DHT22;9179;50.968;3.134;2023-12-28T01:47:50;12.10;99.90
18105;DHT22;9179;50.968;3.134;2023-12-28T01:50:20;12.20;99.90
18105;DHT22;9179;50.968;3.134;2023-12-28T01:52:49;12.30;99.90
18105;DHT22;9179;50.968;3.134;2023-12-28T01:55:16;12.30;99.90
18105;DHT22;9179;50.968;3.134;2023-12-28T01:57:43;12.30;99.90
18105;DHT22;9179;50.968;3.134;2023-12-28T02:00:12;12.20;99.90
18105;DHT22;9179;50.968;3.134;2023-12-28T02:02:39;12.10;99.90
18105;DHT22;9179;50.968;3.134;2023-12-28T02:05:07;12.10;99.90
18105;DHT22;9179;50.968;3.134;2023-12-28T02:07:36;12.10;99.90
18105;DHT22;9179;50.968;3.134;2023-12-28T02:10:04;12.00;99.90
18105;DHT22;9179;50.968;3.134;2023-12-28T02:12:31;12.00;99.90
18105;DHT22;9179;50.968;3.134;2023-12-28T02:14:58;11.90;99.90
18105;DHT22;9179;50.968;3.134;2023-12-28T02:17:30;11.90;99.90
18105;DHT22;9179;50.968;3.134;2023-12-28T02:20:00;11.80;99.90
18105;DHT22;9179;50.968;3.134;2023-12-28T02:22:31;11.90;99.90
18105;DHT22;9179;50.968;3.134;2023-12-28T02:25:05;11.90;99.90
18105;DHT22;9179;50.968;3.134;2023-12-28T02:27:33;11.80;99.90
18105;DHT22;9179;50.968;3.134;2023-12-28T02:30:00;11.80;99.90
18105;DHT22;9179;50.968;3.134;2023-12-28T02:32:35;11.90;99.90
18105;DHT22;9179;50.968;3.134;2023-12-28T02:35:13;12.00;99.90
18105;DHT22;9179;50.968;3.134;2023-12-28T02:37:43;12.10;99.90
18105;DHT22;9179;50.968;3.134;2023-12-28T02:40:15;12.00;99.90
18105;DHT22;9179;50.968;3.134;2023-12-28T02:42:42;12.00;99.90
18105;DHT22;9179;50.968;3.134;2023-12-28T02:45:09;12.00;99.90
18105;DHT22;9179;50.968;3.134;2023-12-28T02:47:37;12.00;99.90
18105;DHT22;9179;50.968;3.134;2023-12-28T02:50:05;11.90;99.90
18105;DHT22;9179;50.968;3.134;2023-12-28T02:52:32;11.80;99.90
18105;DHT22;9179;50.968;3.134;2023-12-28T02:54:59;11.80;99.90
18105;DHT22;9179;50.968;3.134;2023-12-28T02:57:27;11.80;99.90
18105;DHT22;9179;50.968;3.134;2023-12-28T02:59:54;11.80;99.90
18105;DHT22;9179;50.968;3.134;2023-12-28T03:02:22;11.80;99.90
18105;DHT22;9179;50.968;3.134;2023-12-28T03:04:49;11.70;99.90
18105;DHT22;9179;50.968;3.134;2023-12-28T03:07:16;11.70;99.90
18105;DHT22;9179;50.968;3.134;2023-12-28T03:09:43;11.80;99.90
18105;DHT22;9179;50.968;3.134;2023-12-28T03:12:10;11.90;99.90
18105;DHT22;9179;50.968;3.134;2023-12-28T03:14:38;11.90;99.90
18105;DHT22;9179;50.968;3.134;2023-12-28T03:17:05;12.00;99.90
18105;DHT22;9179;50.968;3.134;2023-12-28T03:19:32;12.20;99.90
18105;DHT22;9179;50.968;3.134;2023-12-28T03:21:59;12.30;99.90
18105;DHT22;9179;50.968;3.134;2023-12-28T03:24:26;12.40;99.90
18105;DHT22;9179;50.968;3.134;2023-12-28T03:26:52;12.40;99.90
18105;DHT22;9179;50.968;3.134;2023-12-28T03:29:19;12.40;99.90
18105;DHT22;9179;50.968;3.134;2023-12-28T03:31:48;12.60;99.90
18105;DHT22;9179;50.968;3.134;2023-12-28T03:34:15;12.70;99.90
18105;DHT22;9179;50.968;3.134;2023-12-28T03:36:43;12.70;99.90
18105;DHT22;9179;50.968;3.134;2023-12-28T03:39:10;12.80;99.90
18105;DHT22;9179;50.968;3.134;2023-12-28T03:41:36;12.80;99.90
18105;DHT22;9179;50.968;3.134;2023-12-28T03:44:04;12.80;99.90
18105;DHT22;9179;50.968;3.134;2023-12-28T03:46:30;12.80;99.90
18105;DHT22;9179;50.968;3.134;2023-12-28T03:48:59;12.90;99.90
18105;DHT22;9179;50.968;3.134;2023-12-28T03:51:26;12.80;99.90
18105;DHT22;9179;50.968;3.134;2023-12-28T03:53:53;12.80;99.90
18105;DHT22;9179;50.968;3.134;2023-12-28T03:56:24;12.70;99.90
18105;DHT22;9179;50.968;3.134;2023-12-28T03:58:51;12.40;99.90
18105;DHT22;9179;50.968;3.134;2023-12-28T04:01:19;12.20;99.90
18105;DHT22;9179;50.968;3.134;2023-12-28T04:03:46;12.10;99.90
18105;DHT22;9179;50.968;3.134;2023-12-28T04:06:15;12.00;99.90
18105;DHT22;9179;50.968;3.134;2023-12-28T04:08:42;11.90;99.90
18105;DHT22;9179;50.968;3.134;2023-12-28T04:11:09;11.80;99.90
18105;DHT22;9179;50.968;3.134;2023-12-28T04:13:36;11.80;99.90
18105;DHT22;9179;50.968;3.134;2023-12-28T04:16:05;11.80;99.90
18105;DHT22;9179;50.968;3.134;2023-12-28T04:18:32;11.80;99.90
18105;DHT22;9179;50.968;3.134;2023-12-28T04:20:59;11.90;99.90
18105;DHT22;9179;50.968;3.134;2023-12-28T04:23:27;11.90;99.90
18105;DHT22;9179;50.968;3.134;2023-12-28T04:25:54;12.00;99.90
18105;DHT22;9179;50.968;3.134;2023-12-28T04:28:21;12.10;99.90
18105;DHT22;9179;50.968;3.134;2023-12-28T04:30:48;12.10;99.90
18105;DHT22;9179;50.968;3.134;2023-12-28T04:33:17;12.10;99.90
18105;DHT22;9179;50.968;3.134;2023-12-28T04:35:44;12.10;99.90
18105;DHT22;9179;50.968;3.134;2023-12-28T04:38:12;12.00;99.90
18105;DHT22;9179;50.968;3.134;2023-12-28T04:40:40;11.90;99.90
18105;DHT22;9179;50.968;3.134;2023-12-28T04:43:08;11.90;99.90
18105;DHT22;9179;50.968;3.134;2023-12-28T04:45:35;11.80;99.90
18105;DHT22;9179;50.968;3.134;2023-12-28T04:48:02;11.70;99.90
18105;DHT22;9179;50.968;3.134;2023-12-28T04:50:29;11.70;99.90
18105;DHT22;9179;50.968;3.134;2023-12-28T04:52:56;11.60;99.90
18105;DHT22;9179;50.968;3.134;2023-12-28T04:55:23;11.60;99.90
18105;DHT22;9179;50.968;3.134;2023-12-28T04:57:52;11.70;99.90
18105;DHT22;9179;50.968;3.134;2023-12-28T05:00:19;11.80;99.90
18105;DHT22;9179;50.968;3.134;2023-12-28T05:02:46;12.00;99.90
18105;DHT22;9179;50.968;3.134;2023-12-28T05:05:13;12.10;99.90
18105;DHT22;9179;50.968;3.134;2023-12-28T05:07:40;12.20;99.90
18105;DHT22;9179;50.968;3.134;2023-12-28T05:10:07;12.20;99.90
18105;DHT22;9179;50.968;3.134;2023-12-28T05:12:34;12.10;99.90
18105;DHT22;9179;50.968;3.134;2023-12-28T05:15:04;12.20;99.90
18105;DHT22;9179;50.968;3.134;2023-12-28T05:17:31;12.30;99.90
18105;DHT22;9179;50.968;3.134;2023-12-28T05:19:58;12.20;99.90
18105;DHT22;9179;50.968;3.134;2023-12-28T05:22:24;12.10;99.90
18105;DHT22;9179;50.968;3.134;2023-12-28T05:24:51;12.00;99.90
18105;DHT22;9179;50.968;3.134;2023-12-28T05:27:18;11.80;99.90
18105;DHT22;9179;50.968;3.134;2023-12-28T05:29:45;11.70;99.90
18105;DHT22;9179;50.968;3.134;2023-12-28T05:32:14;11.60;99.90
18105;DHT22;9179;50.968;3.134;2023-12-28T05:34:40;11.50;99.90
18105;DHT22;9179;50.968;3.134;2023-12-28T05:37:07;11.40;99.90
18105;DHT22;9179;50.968;3.134;2023-12-28T05:39:34;11.40;99.90
18105;DHT22;9179;50.968;3.134;2023-12-28T05:42:01;11.30;99.90
18105;DHT22;9179;50.968;3.134;2023-12-28T05:44:28;11.30;99.90
18105;DHT22;9179;50.968;3.134;2023-12-28T05:46:55;11.30;99.90
18105;DHT22;9179;50.968;3.134;2023-12-28T05:49:24;11.20;99.90
18105;DHT22;9179;50.968;3.134;2023-12-28T05:51:54;11.20;99.90
18105;DHT22;9179;50.968;3.134;2023-12-28T05:54:20;11.20;99.90
18105;DHT22;9179;50.968;3.134;2023-12-28T05:56:47;11.20;99.90
18105;DHT22;9179;50.968;3.134;2023-12-28T05:59:14;11.10;99.90
18105;DHT22;9179;50.968;3.134;2023-12-28T06:01:42;11.20;99.90
18105;DHT22;9179;50.968;3.134;2023-12-28T06:04:09;11.20;99.90
18105;DHT22;9179;50.968;3.134;2023-12-28T06:06:38;11.20;99.90
18105;DHT22;9179;50.968;3.134;2023-12-28T06:09:05;11.10;99.90
18105;DHT22;9179;50.968;3.134;2023-12-28T06:11:32;11.10;99.90
18105;DHT22;9179;50.968;3.134;2023-12-28T06:13:58;11.20;99.90
18105;DHT22;9179;50.968;3.134;2023-12-28T06:16:25;11.30;99.90
18105;DHT22;9179;50.968;3.134;2023-12-28T06:18:52;11.50;99.90
18105;DHT22;9179;50.968;3.134;2023-12-28T06:21:19;11.60;99.90
18105;DHT22;9179;50.968;3.134;2023-12-28T06:23:48;11.60;99.90
18105;DHT22;9179;50.968;3.134;2023-12-28T06:26:14;11.40;99.90
18105;DHT22;9179;50.968;3.134;2023-12-28T06:28:41;11.30;99.90
18105;DHT22;9179;50.968;3.134;2023-12-28T06:31:08;11.30;99.90
18105;DHT22;9179;50.968;3.134;2023-12-28T06:33:35;11.30;99.90
18105;DHT22;9179;50.968;3.134;2023-12-28T06:36:05;11.40;99.90
18105;DHT22;9179;50.968;3.134;2023-12-28T06:38:32;11.40;99.90
18105;DHT22;9179;50.968;3.134;2023-12-28T06:41:01;11.40;99.90
18105;DHT22;9179;50.968;3.134;2023-12-28T06:43:28;11.50;99.90
18105;DHT22;9179;50.968;3.134;2023-12-28T06:45:56;11.60;99.90
18105;DHT22;9179;50.968;3.134;2023-12-28T06:48:22;11.80;99.90
18105;DHT22;9179;50.968;3.134;2023-12-28T06:50:50;11.90;99.90
18105;DHT22;9179;50.968;3.134;2023-12-28T06:53:17;12.20;99.90
18105;DHT22;9179;50.968;3.134;2023-12-28T06:55:44;12.30;99.90
18105;DHT22;9179;50.968;3.134;2023-12-28T06:58:12;12.30;99.90
18105;DHT22;9179;50.968;3.134;2023-12-28T07:00:39;12.50;99.90
18105;DHT22;9179;50.968;3.134;2023-12-28T07:03:06;12.50;99.90
18105;DHT22;9179;50.968;3.134;2023-12-28T07:05:34;12.60;99.90
18105;DHT22;9179;50.968;3.134;2023-12-28T07:08:01;12.60;99.90
18105;DHT22;9179;50.968;3.134;2023-12-28T07:10:28;12.60;99.90
18105;DHT22;9179;50.968;3.134;2023-12-28T07:12:55;12.60;99.90
18105;DHT22;9179;50.968;3.134;2023-12-28T07:15:23;12.60;99.90
18105;DHT22;9179;50.968;3.134;2023-12-28T07:17:50;12.50;99.90
18105;DHT22;9179;50.968;3.134;2023-12-28T07:20:17;12.40;99.90
18105;DHT22;9179;50.968;3.134;2023-12-28T07:22:44;12.30;99.90
18105;DHT22;9179;50.968;3.134;2023-12-28T07:25:11;12.30;99.90
18105;DHT22;9179;50.968;3.134;2023-12-28T07:27:38;12.30;99.90
18105;DHT22;9179;50.968;3.134;2023-12-28T07:30:06;12.30;99.90
18105;DHT22;9179;50.968;3.134;2023-12-28T07:32:35;12.30;99.90
18105;DHT22;9179;50.968;3.134;2023-12-28T07:35:02;12.30;99.90
18105;DHT22;9179;50.968;3.134;2023-12-28T07:37:29;12.30;99.90
18105;DHT22;9179;50.968;3.134;2023-12-28T07:39:56;12.40;99.90
18105;DHT22;9179;50.968;3.134;2023-12-28T07:42:23;12.40;99.90
18105;DHT22;9179;50.968;3.134;2023-12-28T07:44:50;12.40;99.90
18105;DHT22;9179;50.968;3.134;2023-12-28T07:47:17;12.30;99.90
18105;DHT22;9179;50.968;3.134;2023-12-28T07:49:46;12.10;99.90
18105;DHT22;9179;50.968;3.134;2023-12-28T07:52:12;12.00;99.90
18105;DHT22;9179;50.968;3.134;2023-12-28T07:54:39;11.90;99.90
18105;DHT22;9179;50.968;3.134;2023-12-28T07:57:06;11.90;99.90
18105;DHT22;9179;50.968;3.134;2023-12-28T07:59:33;11.80;99.90
18105;DHT22;9179;50.968;3.134;2023-12-28T08:02:00;11.80;99.90
18105;DHT22;9179;50.968;3.134;2023-12-28T08:04:27;11.90;99.90
18105;DHT22;9179;50.968;3.134;2023-12-28T08:06:55;12.00;99.90
18105;DHT22;9179;50.968;3.134;2023-12-28T08:09:22;12.20;99.90
18105;DHT22;9179;50.968;3.134;2023-12-28T08:11:49;12.40;99.90
18105;DHT22;9179;50.968;3.134;2023-12-28T08:14:16;12.40;99.90
18105;DHT22;9179;50.968;3.134;2023-12-28T08:16:43;12.50;99.90
18105;DHT22;9179;50.968;3.134;2023-12-28T08:19:11;12.60;99.90
18105;DHT22;9179;50.968;3.134;2023-12-28T08:21:38;12.70;99.90
18105;DHT22;9179;50.968;3.134;2023-12-28T08:24:06;12.80;99.90
18105;DHT22;9179;50.968;3.134;2023-12-28T08:26:33;12.80;99.90
18105;DHT22;9179;50.968;3.134;2023-12-28T08:29:00;12.80;99.90
18105;DHT22;9179;50.968;3.134;2023-12-28T08:31:27;12.80;99.90
18105;DHT22;9179;50.968;3.134;2023-12-28T08:33:55;12.80;99.90
18105;DHT22;9179;50.968;3.134;2023-12-28T08:36:22;12.80;99.90
18105;DHT22;9179;50.968;3.134;2023-12-28T08:38:49;12.70;99.90
18105;DHT22;9179;50.968;3.134;2023-12-28T08:41:20;12.60;99.90
18105;DHT22;9179;50.968;3.134;2023-12-28T08:43:49;12.50;99.90
18105;DHT22;9179;50.968;3.134;2023-12-28T08:46:17;12.50;99.90
18105;DHT22;9179;50.968;3.134;2023-12-28T08:48:44;12.50;99.90
18105;DHT22;9179;50.968;3.134;2023-12-28T08:51:12;12.50;99.90
18105;DHT22;9179;50.968;3.134;2023-12-28T08:53:40;12.30;99.90
18105;DHT22;9179;50.968;3.134;2023-12-28T08:56:13;12.30;99.90
18105;DHT22;9179;50.968;3.134;2023-12-28T08:58:41;12.30;99.90
18105;DHT22;9179;50.968;3.134;2023-12-28T09:01:08;12.30;99.90
18105;DHT22;9179;50.968;3.134;2023-12-28T09:03:35;12.40;99.90
18105;DHT22;9179;50.968;3.134;2023-12-28T09:06:02;12.50;99.90
18105;DHT22;9179;50.968;3.134;2023-12-28T09:08:29;12.60;99.90
18105;DHT22;9179;50.968;3.134;2023-12-28T09:10:56;12.60;99.90
18105;DHT22;9179;50.968;3.134;2023-12-28T09:13:23;12.70;99.90
18105;DHT22;9179;50.968;3.134;2023-12-28T09:15:51;12.70;99.90
18105;DHT22;9179;50.968;3.134;2023-12-28T09:18:18;12.80;99.90
18105;DHT22;9179;50.968;3.134;2023-12-28T09:20:45;12.80;99.90
18105;DHT22;9179;50.968;3.134;2023-12-28T09:23:12;12.90;99.90
18105;DHT22;9179;50.968;3.134;2023-12-28T09:25:40;13.00;99.90
18105;DHT22;9179;50.968;3.134;2023-12-28T09:28:07;13.10;99.90
18105;DHT22;9179;50.968;3.134;2023-12-28T09:30:34;13.40;99.90
18105;DHT22;9179;50.968;3.134;2023-12-28T09:33:02;13.50;99.90
18105;DHT22;9179;50.968;3.134;2023-12-28T09:35:29;13.50;99.90
18105;DHT22;9179;50.968;3.134;2023-12-28T09:37:56;13.50;99.90
18105;DHT22;9179;50.968;3.134;2023-12-28T09:40:24;13.60;99.90
18105;DHT22;9179;50.968;3.134;2023-12-28T09:42:57;13.50;99.90
18105;DHT22;9179;50.968;3.134;2023-12-28T09:45:27;13.60;99.90
18105;DHT22;9179;50.968;3.134;2023-12-28T09:47:54;13.60;99.90
18105;DHT22;9179;50.968;3.134;2023-12-28T09:50:23;13.70;99.90
18105;DHT22;9179;50.968;3.134;2023-12-28T09:52:52;13.80;99.90
18105;DHT22;9179;50.968;3.134;2023-12-28T09:55:19;13.80;99.90
18105;DHT22;9179;50.968;3.134;2023-12-28T09:57:46;13.90;99.90
18105;DHT22;9179;50.968;3.134;2023-12-28T10:00:14;13.80;99.90
18105;DHT22;9179;50.968;3.134;2023-12-28T10:02:44;13.90;99.90
18105;DHT22;9179;50.968;3.134;2023-12-28T10:05:12;13.80;99.90
18105;DHT22;9179;50.968;3.134;2023-12-28T10:07:42;13.80;99.90
18105;DHT22;9179;50.968;3.134;2023-12-28T10:10:09;13.80;99.90
18105;DHT22;9179;50.968;3.134;2023-12-28T10:12:36;13.80;99.90
18105;DHT22;9179;50.968;3.134;2023-12-28T10:15:05;13.90;99.90
18105;DHT22;9179;50.968;3.134;2023-12-28T10:17:32;14.00;99.90
18105;DHT22;9179;50.968;3.134;2023-12-28T10:20:00;14.00;99.90
18105;DHT22;9179;50.968;3.134;2023-12-28T10:22:30;14.00;99.90
18105;DHT22;9179;50.968;3.134;2023-12-28T10:25:03;14.00;99.90
18105;DHT22;9179;50.968;3.134;2023-12-28T10:27:30;13.90;99.90
18105;DHT22;9179;50.968;3.134;2023-12-28T10:29:57;13.90;99.90
18105;DHT22;9179;50.968;3.134;2023-12-28T10:32:24;13.90;99.90
18105;DHT22;9179;50.968;3.134;2023-12-28T10:34:51;13.90;99.90
18105;DHT22;9179;50.968;3.134;2023-12-28T10:37:20;13.80;99.90
18105;DHT22;9179;50.968;3.134;2023-12-28T10:39:48;13.80;99.90
18105;DHT22;9179;50.968;3.134;2023-12-28T10:42:25;13.80;99.90
18105;DHT22;9179;50.968;3.134;2023-12-28T10:45:00;13.90;99.90
18105;DHT22;9179;50.968;3.134;2023-12-28T10:47:31;13.90;99.90
18105;DHT22;9179;50.968;3.134;2023-12-28T10:50:02;14.00;99.90
18105;DHT22;9179;50.968;3.134;2023-12-28T10:52:31;14.10;99.90
18105;DHT22;9179;50.968;3.134;2023-12-28T10:55:07;14.10;99.90
18105;DHT22;9179;50.968;3.134;2023-12-28T10:57:43;14.10;99.90
18105;DHT22;9179;50.968;3.134;2023-12-28T11:00:19;14.00;99.90
18105;DHT22;9179;50.968;3.134;2023-12-28T11:02:48;14.30;99.90
18105;DHT22;9179;50.968;3.134;2023-12-28T11:05:19;14.50;99.90
18105;DHT22;9179;50.968;3.134;2023-12-28T11:07:48;14.50;99.90
18105;DHT22;9179;50.968;3.134;2023-12-28T11:10:20;14.60;99.90
18105;DHT22;9179;50.968;3.134;2023-12-28T11:12:50;14.50;99.90
18105;DHT22;9179;50.968;3.134;2023-12-28T11:15:19;14.40;99.90
18105;DHT22;9179;50.968;3.134;2023-12-28T11:17:46;14.50;99.90
18105;DHT22;9179;50.968;3.134;2023-12-28T11:20:14;14.60;99.90
18105;DHT22;9179;50.968;3.134;2023-12-28T11:22:42;14.70;99.90
18105;DHT22;9179;50.968;3.134;2023-12-28T11:25:15;14.70;99.90
18105;DHT22;9179;50.968;3.134;2023-12-28T11:27:42;14.60;99.90
18105;DHT22;9179;50.968;3.134;2023-12-28T11:30:12;14.50;99.90
18105;DHT22;9179;50.968;3.134;2023-12-28T11:32:40;14.50;99.90
18105;DHT22;9179;50.968;3.134;2023-12-28T11:35:10;14.50;99.90
18105;DHT22;9179;50.968;3.134;2023-12-28T11:37:41;14.60;99.90
18105;DHT22;9179;50.968;3.134;2023-12-28T11:40:10;14.50;99.90
18105;DHT22;9179;50.968;3.134;2023-12-28T11:42:48;14.50;99.90
18105;DHT22;9179;50.968;3.134;2023-12-28T11:45:17;14.40;99.90
18105;DHT22;9179;50.968;3.134;2023-12-28T11:47:45;14.40;99.90
18105;DHT22;9179;50.968;3.134;2023-12-28T11:50:12;14.50;99.90
18105;DHT22;9179;50.968;3.134;2023-12-28T11:52:39;14.50;99.90
18105;DHT22;9179;50.968;3.134;2023-12-28T11:55:07;14.50;99.90
18105;DHT22;9179;50.968;3.134;2023-12-28T11:57:35;14.60;99.90
18105;DHT22;9179;50.968;3.134;2023-12-28T12:00:03;14.50;99.90
18105;DHT22;9179;50.968;3.134;2023-12-28T12:02:34;14.50;99.90
18105;DHT22;9179;50.968;3.134;2023-12-28T12:05:01;14.30;99.90
18105;DHT22;9179;50.968;3.134;2023-12-28T12:07:29;14.30;99.90
18105;DHT22;9179;50.968;3.134;2023-12-28T12:09:56;14.40;99.90
18105;DHT22;9179;50.968;3.134;2023-12-28T12:12:24;14.40;99.90
18105;DHT22;9179;50.968;3.134;2023-12-28T12:14:51;14.60;99.90
18105;DHT22;9179;50.968;3.134;2023-12-28T12:17:18;14.70;99.90
18105;DHT22;9179;50.968;3.134;2023-12-28T12:19:47;14.60;99.90
18105;DHT22;9179;50.968;3.134;2023-12-28T12:22:17;14.50;99.90
18105;DHT22;9179;50.968;3.134;2023-12-28T12:24:44;14.40;99.90
18105;DHT22;9179;50.968;3.134;2023-12-28T12:27:13;14.50;99.90
18105;DHT22;9179;50.968;3.134;2023-12-28T12:29:40;14.60;99.90
18105;DHT22;9179;50.968;3.134;2023-12-28T12:32:07;14.50;99.90
18105;DHT22;9179;50.968;3.134;2023-12-28T12:34:35;14.40;99.90
18105;DHT22;9179;50.968;3.134;2023-12-28T12:37:04;14.40;99.90
18105;DHT22;9179;50.968;3.134;2023-12-28T12:39:31;14.30;99.90
18105;DHT22;9179;50.968;3.134;2023-12-28T12:41:59;14.30;99.90
18105;DHT22;9179;50.968;3.134;2023-12-28T12:44:26;14.30;99.90
18105;DHT22;9179;50.968;3.134;2023-12-28T12:46:57;14.30;99.90
18105;DHT22;9179;50.968;3.134;2023-12-28T12:49:25;14.20;99.90
18105;DHT22;9179;50.968;3.134;2023-12-28T12:51:52;14.10;99.90
18105;DHT22;9179;50.968;3.134;2023-12-28T12:54:20;14.10;99.90
18105;DHT22;9179;50.968;3.134;2023-12-28T12:56:47;14.10;99.90
18105;DHT22;9179;50.968;3.134;2023-12-28T12:59:16;14.20;99.90
18105;DHT22;9179;50.968;3.134;2023-12-28T13:01:43;14.40;99.90
18105;DHT22;9179;50.968;3.134;2023-12-28T13:04:10;14.60;99.90
18105;DHT22;9179;50.968;3.134;2023-12-28T13:06:38;14.70;99.90
18105;DHT22;9179;50.968;3.134;2023-12-28T13:09:05;14.60;99.90
18105;DHT22;9179;50.968;3.134;2023-12-28T13:11:34;14.70;99.90
18105;DHT22;9179;50.968;3.134;2023-12-28T13:14:01;14.70;99.90
18105;DHT22;9179;50.968;3.134;2023-12-28T13:16:28;14.90;99.90
18105;DHT22;9179;50.968;3.134;2023-12-28T13:18:55;15.00;99.90
18105;DHT22;9179;50.968;3.134;2023-12-28T13:21:23;14.80;99.90
18105;DHT22;9179;50.968;3.134;2023-12-28T13:23:50;14.70;99.90
18105;DHT22;9179;50.968;3.134;2023-12-28T13:26:17;14.60;99.90
18105;DHT22;9179;50.968;3.134;2023-12-28T13:28:45;14.60;99.90
18105;DHT22;9179;50.968;3.134;2023-12-28T13:31:12;14.50;99.90
18105;DHT22;9179;50.968;3.134;2023-12-28T13:33:39;14.50;99.90
18105;DHT22;9179;50.968;3.134;2023-12-28T13:36:06;14.40;99.90
18105;DHT22;9179;50.968;3.134;2023-12-28T13:38:33;14.50;99.90
18105;DHT22;9179;50.968;3.134;2023-12-28T13:41:00;14.60;99.90
18105;DHT22;9179;50.968;3.134;2023-12-28T13:43:27;14.70;99.90
18105;DHT22;9179;50.968;3.134;2023-12-28T13:45:55;14.70;99.90
18105;DHT22;9179;50.968;3.134;2023-12-28T13:48:22;14.70;99.90
18105;DHT22;9179;50.968;3.134;2023-12-28T13:50:49;14.80;99.90
18105;DHT22;9179;50.968;3.134;2023-12-28T13:53:17;14.80;99.90
18105;DHT22;9179;50.968;3.134;2023-12-28T13:55:44;14.70;99.90
18105;DHT22;9179;50.968;3.134;2023-12-28T13:58:14;14.80;99.90
18105;DHT22;9179;50.968;3.134;2023-12-28T14:00:41;14.80;99.90
18105;DHT22;9179;50.968;3.134;2023-12-28T14:03:09;14.70;99.90
18105;DHT22;9179;50.968;3.134;2023-12-28T14:05:36;14.80;99.90
18105;DHT22;9179;50.968;3.134;2023-12-28T14:08:03;14.80;99.90
18105;DHT22;9179;50.968;3.134;2023-12-28T14:10:30;14.80;99.90
18105;DHT22;9179;50.968;3.134;2023-12-28T14:12:57;14.80;99.90
18105;DHT22;9179;50.968;3.134;2023-12-28T14:15:24;14.80;99.90
18105;DHT22;9179;50.968;3.134;2023-12-28T14:17:51;14.90;99.90
18105;DHT22;9179;50.968;3.134;2023-12-28T14:20:20;14.90;99.90
18105;DHT22;9179;50.968;3.134;2023-12-28T14:22:47;14.80;99.90
18105;DHT22;9179;50.968;3.134;2023-12-28T14:25:15;14.80;99.90
18105;DHT22;9179;50.968;3.134;2023-12-28T14:27:43;14.80;99.90
18105;DHT22;9179;50.968;3.134;2023-12-28T14:30:10;14.70;99.90
18105;DHT22;9179;50.968;3.134;2023-12-28T14:32:38;14.90;99.90
18105;DHT22;9179;50.968;3.134;2023-12-28T14:35:06;14.80;99.90
18105;DHT22;9179;50.968;3.134;2023-12-28T14:37:35;14.60;99.90
18105;DHT22;9179;50.968;3.134;2023-12-28T14:40:02;14.40;99.90
18105;DHT22;9179;50.968;3.134;2023-12-28T14:42:31;14.30;99.90
18105;DHT22;9179;50.968;3.134;2023-12-28T14:44:59;14.20;99.90
18105;DHT22;9179;50.968;3.134;2023-12-28T14:47:27;14.10;99.90
18105;DHT22;9179;50.968;3.134;2023-12-28T14:49:54;14.10;99.90
18105;DHT22;9179;50.968;3.134;2023-12-28T14:52:22;14.00;99.90
18105;DHT22;9179;50.968;3.134;2023-12-28T14:54:50;13.90;99.90
18105;DHT22;9179;50.968;3.134;2023-12-28T14:57:19;13.70;99.90
18105;DHT22;9179;50.968;3.134;2023-12-28T14:59:46;13.70;99.90
18105;DHT22;9179;50.968;3.134;2023-12-28T15:02:13;13.80;99.90
18105;DHT22;9179;50.968;3.134;2023-12-28T15:04:40;13.70;99.90
18105;DHT22;9179;50.968;3.134;2023-12-28T15:07:07;13.60;99.90
18105;DHT22;9179;50.968;3.134;2023-12-28T15:09:34;13.60;99.90
18105;DHT22;9179;50.968;3.134;2023-12-28T15:12:04;13.60;99.90
18105;DHT22;9179;50.968;3.134;2023-12-28T15:14:31;13.60;99.90
18105;DHT22;9179;50.968;3.134;2023-12-28T15:16:59;13.60;99.90
18105;DHT22;9179;50.968;3.134;2023-12-28T15:19:26;13.50;99.90
18105;DHT22;9179;50.968;3.134;2023-12-28T15:21:53;13.60;99.90
18105;DHT22;9179;50.968;3.134;2023-12-28T15:24:21;13.50;99.90
18105;DHT22;9179;50.968;3.134;2023-12-28T15:26:48;13.50;99.90
18105;DHT22;9179;50.968;3.134;2023-12-28T15:29:16;13.50;99.90
18105;DHT22;9179;50.968;3.134;2023-12-28T15:31:43;13.50;99.90
18105;DHT22;9179;50.968;3.134;2023-12-28T15:34:10;13.50;99.90
18105;DHT22;9179;50.968;3.134;2023-12-28T15:36:37;13.50;99.90
18105;DHT22;9179;50.968;3.134;2023-12-28T15:39:04;13.50;99.90
18105;DHT22;9179;50.968;3.134;2023-12-28T15:41:31;13.40;99.90
18105;DHT22;9179;50.968;3.134;2023-12-28T15:43:58;13.30;99.90
18105;DHT22;9179;50.968;3.134;2023-12-28T15:46:27;13.40;99.90
18105;DHT22;9179;50.968;3.134;2023-12-28T15:48:54;13.30;99.90